createdAt,value
2018-06-23T00:01:57.893Z,2.93
2018-06-23T00:04:25.971Z,2.60
2018-06-23T00:06:54.025Z,3.07
2018-06-23T00:09:22.085Z,2.77
2018-06-23T00:11:50.155Z,2.90
2018-06-23T00:14:18.222Z,2.97
2018-06-23T00:16:47.613Z,2.70
2018-06-23T00:19:16.741Z,3.07
2018-06-23T00:21:45.588Z,4.77
2018-06-23T00:24:14.192Z,2.50
2018-06-23T00:26:42.351Z,2.80
2018-06-23T00:29:10.496Z,4.23
2018-06-23T00:31:38.530Z,2.43
2018-06-23T00:34:06.616Z,2.43
2018-06-23T00:36:34.661Z,2.13
2018-06-23T00:39:02.745Z,3.00
2018-06-23T00:41:30.843Z,2.50
2018-06-23T00:43:58.864Z,2.43
2018-06-23T00:46:26.940Z,2.90
2018-06-23T00:48:55.009Z,2.63
2018-06-23T00:51:23.076Z,3.20
2018-06-23T00:53:51.111Z,2.23
2018-06-23T00:56:19.190Z,3.27
2018-06-23T00:58:52.666Z,2.50
2018-06-23T01:01:20.719Z,2.93
2018-06-23T01:03:48.948Z,2.40
2018-06-23T01:06:17.884Z,2.13
2018-06-23T01:08:46.833Z,2.10
2018-06-23T01:11:15.545Z,2.03
2018-06-23T01:13:43.728Z,2.23
2018-06-23T01:16:11.949Z,2.17
2018-06-23T01:18:39.979Z,2.33
2018-06-23T01:21:08.092Z,2.50
2018-06-23T01:23:36.410Z,2.20
2018-06-23T01:26:04.476Z,2.80
2018-06-23T01:28:32.514Z,2.20
2018-06-23T01:31:00.618Z,1.90
2018-06-23T01:33:28.648Z,2.47
2018-06-23T01:35:56.707Z,2.30
2018-06-23T01:38:24.741Z,2.20
2018-06-23T01:40:52.812Z,3.00
2018-06-23T01:43:20.852Z,2.00
2018-06-23T01:45:49.220Z,2.13
2018-06-23T01:48:18.287Z,2.37
2018-06-23T01:50:47.255Z,2.23
2018-06-23T01:53:16.143Z,2.57
2018-06-23T01:55:44.374Z,2.60
2018-06-23T01:58:12.540Z,2.93
2018-06-23T02:00:40.603Z,3.40
2018-06-23T02:03:08.635Z,2.90
2018-06-23T02:05:36.893Z,3.20
2018-06-23T02:08:05.463Z,2.90
2018-06-23T02:10:33.623Z,2.90
2018-06-23T02:13:02.500Z,3.63
2018-06-23T02:15:37.326Z,2.60
2018-06-23T02:18:10.844Z,2.87
2018-06-23T02:20:44.057Z,2.60
2018-06-23T02:23:17.428Z,2.83
2018-06-23T02:25:50.789Z,2.53
2018-06-23T02:28:24.241Z,3.70
2018-06-23T02:30:57.678Z,2.67
2018-06-23T02:33:31.374Z,3.60
2018-06-23T02:36:00.162Z,3.27
2018-06-23T02:38:28.367Z,2.30
2018-06-23T02:40:56.625Z,2.37
2018-06-23T02:43:24.673Z,2.77
2018-06-23T02:45:52.713Z,2.63
2018-06-23T02:48:20.806Z,3.03
2018-06-23T02:50:48.846Z,4.27
2018-06-23T02:53:16.896Z,3.00
2018-06-23T02:55:44.961Z,2.53
2018-06-23T02:58:13.022Z,2.93
2018-06-23T03:00:41.089Z,2.40
2018-06-23T03:03:09.191Z,2.67
2018-06-23T03:05:37.292Z,2.37
2018-06-23T03:08:05.625Z,2.60
2018-06-23T03:10:34.301Z,2.60
2018-06-23T03:13:03.305Z,2.53
2018-06-23T03:15:32.313Z,2.73
2018-06-23T03:18:00.900Z,2.90
2018-06-23T03:20:30.067Z,3.10
2018-06-23T03:22:58.581Z,2.63
2018-06-23T03:25:26.686Z,3.13
2018-06-23T03:27:54.780Z,2.43
2018-06-23T03:30:23.035Z,2.60
2018-06-23T03:32:51.112Z,2.17
2018-06-23T03:35:19.289Z,3.57
2018-06-23T03:37:47.362Z,2.60
2018-06-23T03:40:15.431Z,3.07
2018-06-23T03:42:43.476Z,2.93
2018-06-23T03:45:11.562Z,2.90
2018-06-23T03:47:39.684Z,2.87
2018-06-23T03:50:07.781Z,3.20
2018-06-23T03:52:35.988Z,3.10
2018-06-23T03:55:04.660Z,2.90
2018-06-23T03:57:33.883Z,3.00
2018-06-23T04:00:02.486Z,2.73
2018-06-23T04:02:30.687Z,3.00
2018-06-23T04:04:58.786Z,2.90
2018-06-23T04:07:26.813Z,3.43
2018-06-23T04:09:54.865Z,3.10
2018-06-23T04:12:22.910Z,3.20
2018-06-23T04:14:50.974Z,3.00
2018-06-23T04:17:18.996Z,2.97
2018-06-23T04:19:47.072Z,2.50
2018-06-23T04:22:15.151Z,4.23
2018-06-23T04:24:43.176Z,3.10
2018-06-23T04:27:11.340Z,3.23
2018-06-23T04:29:39.385Z,3.10
2018-06-23T04:32:07.455Z,3.10
2018-06-23T04:34:35.715Z,3.33
2018-06-23T04:37:04.624Z,2.90
2018-06-23T04:39:33.380Z,3.00
2018-06-23T04:42:01.552Z,3.57
2018-06-23T04:44:29.739Z,3.97
2018-06-23T04:46:57.814Z,3.00
2018-06-23T04:49:25.832Z,3.00
2018-06-23T04:51:53.898Z,3.73
2018-06-23T04:54:21.956Z,3.50
2018-06-23T04:56:50.048Z,3.33
2018-06-23T04:59:18.096Z,3.80
2018-06-23T05:01:46.188Z,3.90
2018-06-23T05:04:14.278Z,3.20
2018-06-23T05:06:42.343Z,3.50
2018-06-23T05:09:10.393Z,3.00
2018-06-23T05:11:38.468Z,3.00
2018-06-23T05:14:06.695Z,3.13
2018-06-23T05:16:36.578Z,3.03
2018-06-23T05:19:05.984Z,3.20
2018-06-23T05:21:35.550Z,3.30
2018-06-23T05:24:04.504Z,3.07
2018-06-23T05:26:33.089Z,3.83
2018-06-23T05:29:01.271Z,3.80
2018-06-23T05:31:29.329Z,3.63
2018-06-23T05:33:57.389Z,4.10
2018-06-23T05:36:25.492Z,3.33
2018-06-23T05:38:53.545Z,4.77
2018-06-23T05:41:21.642Z,4.03
2018-06-23T05:43:49.691Z,3.83
2018-06-23T05:46:17.721Z,3.43
2018-06-23T05:48:45.797Z,3.40
2018-06-23T05:51:13.870Z,2.83
2018-06-23T05:53:41.957Z,4.57
2018-06-23T05:56:10.006Z,3.60
2018-06-23T05:58:38.226Z,4.30
2018-06-23T06:01:06.907Z,3.60
2018-06-23T06:03:35.904Z,4.53
2018-06-23T06:06:04.687Z,3.60
2018-06-23T06:08:32.972Z,3.93
2018-06-23T06:11:01.266Z,19.77
2018-06-23T06:13:29.371Z,5.40
2018-06-23T06:15:57.417Z,7.53
2018-06-23T06:18:25.523Z,3.60
2018-06-23T06:20:53.583Z,4.60
2018-06-23T06:23:21.686Z,5.40
2018-06-23T06:25:49.731Z,4.30
2018-06-23T06:28:17.878Z,3.90
2018-06-23T06:30:45.948Z,4.93
2018-06-23T06:33:14.010Z,4.50
2018-06-23T06:35:42.077Z,4.03
2018-06-23T06:38:10.216Z,4.37
2018-06-23T06:40:38.616Z,4.03
2018-06-23T06:43:07.497Z,4.37
2018-06-23T06:45:36.533Z,5.47
2018-06-23T06:48:05.190Z,10.77
2018-06-23T06:50:33.685Z,3.87
2018-06-23T06:53:02.117Z,3.67
2018-06-23T06:55:30.173Z,4.20
2018-06-23T06:57:58.265Z,4.20
2018-06-23T07:00:26.287Z,4.10
2018-06-23T07:02:54.427Z,10.43
2018-06-23T07:05:22.509Z,6.73
2018-06-23T07:07:50.573Z,5.00
2018-06-23T07:10:18.703Z,4.47
2018-06-23T07:12:46.734Z,4.90
2018-06-23T07:15:16.201Z,4.60
2018-06-23T07:17:44.593Z,4.50
2018-06-23T07:20:13.216Z,4.23
2018-06-23T07:22:41.616Z,6.13
2018-06-23T07:25:09.917Z,5.10
2018-06-23T07:27:38.858Z,5.30
2018-06-23T07:30:08.638Z,5.00
2018-06-23T07:32:37.962Z,6.30
2018-06-23T07:35:06.505Z,6.00
2018-06-23T07:37:34.554Z,5.83
2018-06-23T07:40:02.673Z,6.13
2018-06-23T07:42:30.705Z,6.40
2018-06-23T07:44:58.788Z,5.63
2018-06-23T07:47:27.005Z,5.00
2018-06-23T07:49:55.109Z,5.20
2018-06-23T07:52:23.275Z,5.80
2018-06-23T07:54:51.338Z,5.70
2018-06-23T07:57:19.452Z,4.70
2018-06-23T07:59:47.540Z,4.87
2018-06-23T08:02:15.565Z,6.77
2018-06-23T08:04:43.670Z,6.33
2018-06-23T08:07:12.165Z,5.53
2018-06-23T08:09:40.628Z,5.60
2018-06-23T08:12:09.850Z,5.70
2018-06-23T08:14:39.896Z,5.40
2018-06-23T08:17:09.894Z,5.13
2018-06-23T08:19:39.875Z,5.30
2018-06-23T08:22:10.149Z,4.23
2018-06-23T08:24:40.206Z,4.73
2018-06-23T08:27:09.707Z,5.40
2018-06-23T08:29:39.080Z,3.93
2018-06-23T08:32:07.809Z,5.60
2018-06-23T08:34:36.043Z,4.87
2018-06-23T08:37:04.295Z,4.87
2018-06-23T08:39:32.321Z,5.07
2018-06-23T08:42:00.370Z,5.30
2018-06-23T08:44:28.414Z,5.47
2018-06-23T08:46:56.494Z,6.03
2018-06-23T08:49:24.550Z,5.13
2018-06-23T08:51:52.608Z,5.60
2018-06-23T08:54:20.648Z,5.07
2018-06-23T08:56:48.748Z,4.50
2018-06-23T08:59:16.782Z,5.60
2018-06-23T09:01:44.869Z,5.43
2018-06-23T09:04:12.988Z,5.03
2018-06-23T09:06:41.130Z,4.70
2018-06-23T09:09:10.249Z,4.20
2018-06-23T09:11:38.772Z,4.70
2018-06-23T09:14:06.880Z,5.33
2018-06-23T09:16:35.389Z,4.97
2018-06-23T09:19:04.153Z,5.13
2018-06-23T09:21:33.002Z,5.33
2018-06-23T09:24:01.967Z,3.93
2018-06-23T09:26:30.773Z,5.33
2018-06-23T09:28:59.056Z,4.93
2018-06-23T09:31:27.286Z,4.60
2018-06-23T09:33:55.372Z,3.90
2018-06-23T09:36:23.522Z,6.10
2018-06-23T09:38:51.621Z,4.63
2018-06-23T09:41:19.717Z,4.20
2018-06-23T09:43:47.895Z,4.57
2018-06-23T09:46:16.148Z,4.10
2018-06-23T09:48:44.179Z,3.83
2018-06-23T09:51:12.241Z,4.50
2018-06-23T09:53:40.271Z,4.20
2018-06-23T09:56:08.364Z,4.47
2018-06-23T09:58:36.404Z,3.90
2018-06-23T10:01:04.796Z,5.17
2018-06-23T10:03:33.634Z,4.03
2018-06-23T10:06:03.332Z,4.47
2018-06-23T10:08:32.078Z,4.27
2018-06-23T10:11:00.564Z,5.70
2018-06-23T10:13:29.189Z,5.70
2018-06-23T10:15:57.332Z,4.60
2018-06-23T10:18:25.408Z,5.87
2018-06-23T10:20:53.479Z,5.90
2018-06-23T10:23:21.658Z,5.73
2018-06-23T10:25:49.680Z,5.87
2018-06-23T10:28:17.797Z,6.17
2018-06-23T10:30:49.095Z,6.03
2018-06-23T10:33:19.409Z,6.57
2018-06-23T10:35:47.832Z,4.97
2018-06-23T10:38:15.973Z,6.50
2018-06-23T10:40:43.979Z,6.73
2018-06-23T10:43:12.051Z,7.20
2018-06-23T10:45:40.123Z,6.43
2018-06-23T10:48:08.249Z,6.57
2018-06-23T10:50:36.320Z,6.27
2018-06-23T10:53:04.809Z,6.80
2018-06-23T10:55:32.925Z,5.77
2018-06-23T10:58:01.007Z,7.07
2018-06-23T11:00:29.072Z,7.10
2018-06-23T11:02:57.144Z,7.20
2018-06-23T11:05:25.229Z,7.17
2018-06-23T11:07:53.340Z,6.40
2018-06-23T11:10:21.366Z,6.80
2018-06-23T11:12:49.434Z,6.30
2018-06-23T11:15:17.489Z,7.10
2018-06-23T11:17:45.566Z,6.77
2018-06-23T11:20:13.596Z,6.90
2018-06-23T11:22:42.024Z,6.73
2018-06-23T11:25:10.121Z,5.93
2018-06-23T11:27:38.206Z,4.70
2018-06-23T11:30:06.855Z,5.53
2018-06-23T11:32:35.100Z,6.93
2018-06-23T11:35:03.331Z,6.60
2018-06-23T11:37:31.384Z,6.90
2018-06-23T11:39:59.454Z,5.57
2018-06-23T11:42:27.500Z,6.10
2018-06-23T11:44:55.561Z,7.27
2018-06-23T11:47:23.597Z,5.87
2018-06-23T11:49:51.853Z,5.40
2018-06-23T11:52:19.920Z,6.23
2018-06-23T11:54:48.005Z,5.30
2018-06-23T11:57:16.050Z,4.83
2018-06-23T11:59:44.088Z,4.70
2018-06-23T12:02:12.128Z,5.93
2018-06-23T12:04:40.212Z,5.90
2018-06-23T12:07:08.312Z,4.73
2018-06-23T12:09:36.420Z,4.63
2018-06-23T12:12:04.542Z,4.67
2018-06-23T12:14:32.665Z,6.10
2018-06-23T12:17:00.689Z,4.77
2018-06-23T12:19:28.739Z,4.57
2018-06-23T12:21:56.768Z,5.17
2018-06-23T12:24:24.828Z,3.63
2018-06-23T12:26:52.854Z,4.87
2018-06-23T12:29:20.910Z,4.47
2018-06-23T12:31:48.943Z,4.23
2018-06-23T12:34:17.045Z,4.83
2018-06-23T12:36:45.071Z,5.67
2018-06-23T12:39:13.136Z,5.53
2018-06-23T12:41:41.541Z,5.00
2018-06-23T12:44:09.765Z,5.50
2018-06-23T12:46:38.184Z,5.03
2018-06-23T12:49:06.357Z,5.30
2018-06-23T12:51:34.561Z,4.63
2018-06-23T12:54:02.734Z,4.33
2018-06-23T12:56:30.823Z,4.30
2018-06-23T12:58:58.913Z,3.80
2018-06-23T13:01:26.990Z,4.60
2018-06-23T13:03:55.078Z,3.40
2018-06-23T13:06:23.116Z,4.30
2018-06-23T13:08:51.146Z,3.93
2018-06-23T13:11:19.207Z,4.50
2018-06-23T13:13:47.228Z,4.20
2018-06-23T13:16:15.285Z,4.93
2018-06-23T13:18:43.320Z,4.60
2018-06-23T13:21:11.400Z,3.90
2018-06-23T13:23:39.475Z,4.10
2018-06-23T13:26:07.544Z,3.30
2018-06-23T13:28:35.979Z,4.27
2018-06-23T13:31:04.185Z,4.23
2018-06-23T13:33:32.216Z,3.83
2018-06-23T13:36:00.307Z,3.97
2018-06-23T13:38:28.340Z,3.53
2018-06-23T13:40:56.469Z,3.77
2018-06-23T13:43:24.533Z,3.20
2018-06-23T13:45:52.597Z,3.20
2018-06-23T13:48:20.614Z,3.03
2018-06-23T13:50:48.686Z,3.10
2018-06-23T13:53:16.739Z,3.13
2018-06-23T13:55:44.785Z,3.50
2018-06-23T13:58:12.857Z,3.83
2018-06-23T14:00:40.912Z,4.13
2018-06-23T14:03:09.003Z,3.37
2018-06-23T14:05:37.239Z,3.10
2018-06-23T14:08:05.325Z,4.03
2018-06-23T14:10:33.446Z,4.07
2018-06-23T14:13:01.503Z,4.30
2018-06-23T14:15:29.573Z,4.93
2018-06-23T14:17:57.617Z,4.50
2018-06-23T14:20:25.685Z,5.00
2018-06-23T14:22:53.752Z,4.10
2018-06-23T14:25:21.899Z,4.00
2018-06-23T14:27:49.981Z,4.93
2018-06-23T14:30:18.269Z,4.27
2018-06-23T14:32:46.322Z,3.70
2018-06-23T14:35:14.395Z,5.37
2018-06-23T14:37:42.450Z,4.20
2018-06-23T14:40:10.561Z,4.10
2018-06-23T14:42:38.740Z,4.33
2018-06-23T14:45:07.441Z,3.60
2018-06-23T14:47:36.358Z,3.70
2018-06-23T14:50:04.960Z,3.03
2018-06-23T14:52:33.237Z,3.07
2018-06-23T14:55:01.580Z,3.50
2018-06-23T14:57:29.636Z,3.97
2018-06-23T14:59:57.668Z,3.87
2018-06-23T15:02:25.769Z,3.60
2018-06-23T15:04:53.931Z,3.60
2018-06-23T15:07:21.940Z,3.07
2018-06-23T15:09:55.370Z,3.20
2018-06-23T15:12:28.944Z,3.03
2018-06-23T15:14:56.969Z,2.90
2018-06-23T15:17:25.045Z,3.03
2018-06-23T15:19:53.113Z,3.50
2018-06-23T15:22:21.216Z,3.37
2018-06-23T15:24:49.312Z,3.50
2018-06-23T15:27:17.392Z,3.20
2018-06-23T15:29:45.420Z,2.77
2018-06-23T15:32:13.490Z,3.60
2018-06-23T15:34:41.575Z,2.80
2018-06-23T15:37:09.692Z,3.07
2018-06-23T15:39:38.397Z,3.40
2018-06-23T15:42:07.566Z,3.20
2018-06-23T15:44:37.290Z,3.90
2018-06-23T15:47:06.703Z,3.30
2018-06-23T15:49:36.400Z,3.60
2018-06-23T15:52:06.541Z,3.07
2018-06-23T15:54:35.414Z,3.87
2018-06-23T15:57:04.624Z,3.87
2018-06-23T15:59:33.166Z,3.70
2018-06-23T16:02:02.381Z,4.50
2018-06-23T16:04:31.238Z,3.20
2018-06-23T16:07:00.360Z,2.87
2018-06-23T16:09:29.063Z,3.83
2018-06-23T16:11:57.881Z,3.13
2018-06-23T16:14:26.233Z,2.60
2018-06-23T16:16:55.712Z,2.27
2018-06-23T16:19:23.937Z,2.70
2018-06-23T16:21:52.019Z,2.37
2018-06-23T16:24:20.360Z,2.77
2018-06-23T16:26:49.507Z,2.23
2018-06-23T16:29:19.103Z,1.80
2018-06-23T16:31:48.502Z,2.20
2018-06-23T16:34:17.054Z,1.80
2018-06-23T16:36:45.338Z,2.17
2018-06-23T16:39:13.580Z,2.57
2018-06-23T16:41:41.653Z,2.30
2018-06-23T16:44:10.026Z,2.20
2018-06-23T16:46:38.677Z,2.27
2018-06-23T16:49:07.392Z,2.83
2018-06-23T16:51:35.532Z,2.30
2018-06-23T16:54:03.731Z,2.20
2018-06-23T16:56:32.471Z,1.87
2018-06-23T16:59:01.830Z,2.10
2018-06-23T17:01:30.705Z,2.17
2018-06-23T17:04:00.127Z,1.90
2018-06-23T17:06:29.724Z,2.00
2018-06-23T17:08:58.935Z,1.47
2018-06-23T17:11:28.320Z,1.73
2018-06-23T17:13:56.960Z,2.13
2018-06-23T17:16:25.803Z,1.90
2018-06-23T17:18:53.983Z,1.90
2018-06-23T17:21:23.422Z,2.13
2018-06-23T17:23:52.538Z,1.90
2018-06-23T17:26:21.981Z,2.30
2018-06-23T17:28:50.901Z,1.97
2018-06-23T17:31:20.561Z,2.53
2018-06-23T17:33:49.085Z,2.10
2018-06-23T17:36:19.270Z,1.77
2018-06-23T17:38:47.938Z,2.63
2018-06-23T17:41:17.101Z,2.20
2018-06-23T17:43:45.735Z,2.27
2018-06-23T17:46:14.531Z,1.77
2018-06-23T17:48:43.768Z,2.63
2018-06-23T17:51:13.637Z,2.37
2018-06-23T17:53:42.753Z,2.30
2018-06-23T17:56:12.485Z,2.40
2018-06-23T17:58:42.141Z,2.50
2018-06-23T18:01:11.963Z,2.83
2018-06-23T18:03:41.456Z,2.43
2018-06-23T18:06:11.304Z,2.23
2018-06-23T18:08:41.283Z,2.50
2018-06-23T18:11:10.331Z,2.83
2018-06-23T18:13:38.846Z,2.70
2018-06-23T18:16:07.015Z,2.47
2018-06-23T18:18:35.238Z,2.60
2018-06-23T18:21:03.292Z,2.97
2018-06-23T18:23:31.390Z,3.47
2018-06-23T18:25:59.423Z,2.33
2018-06-23T18:28:27.916Z,2.53
2018-06-23T18:30:55.959Z,2.97
2018-06-23T18:33:24.020Z,2.30
2018-06-23T18:35:52.045Z,2.47
2018-06-23T18:38:20.107Z,3.03
2018-06-23T18:40:48.179Z,2.20
2018-06-23T18:43:16.216Z,2.47
2018-06-23T18:45:44.307Z,2.90
2018-06-23T18:48:12.631Z,3.10
2018-06-23T18:50:41.407Z,3.00
2018-06-23T18:53:10.146Z,2.70
2018-06-23T18:55:38.936Z,3.70
2018-06-23T18:58:07.834Z,2.43
2018-06-23T19:00:36.100Z,3.77
2018-06-23T19:03:04.222Z,2.87
2018-06-23T19:05:32.345Z,3.07
2018-06-23T19:08:00.380Z,3.20
2018-06-23T19:10:28.519Z,3.87
2018-06-23T19:12:56.624Z,3.70
2018-06-23T19:15:24.684Z,3.53
2018-06-23T19:17:52.829Z,2.57
2018-06-23T19:20:20.927Z,2.87
2018-06-23T19:22:48.940Z,2.83
2018-06-23T19:25:17.046Z,2.90
2018-06-23T19:27:45.081Z,2.83
2018-06-23T19:30:13.513Z,3.37
2018-06-23T19:32:42.807Z,3.00
2018-06-23T19:35:11.557Z,2.50
2018-06-23T19:37:40.259Z,3.03
2018-06-23T19:40:08.532Z,3.63
2018-06-23T19:42:36.713Z,3.03
2018-06-23T19:45:04.782Z,3.23
2018-06-23T19:47:32.897Z,3.90
2018-06-23T19:50:00.925Z,3.80
2018-06-23T19:52:28.954Z,4.40
2018-06-23T19:54:57.037Z,3.20
2018-06-23T19:57:25.084Z,3.60
2018-06-23T19:59:53.150Z,3.60
2018-06-23T20:02:21.271Z,4.20
2018-06-23T20:04:49.463Z,3.60
2018-06-23T20:07:17.629Z,3.80
2018-06-23T20:09:45.677Z,4.13
2018-06-23T20:12:14.218Z,3.40
2018-06-23T20:14:43.129Z,3.60
2018-06-23T20:17:12.150Z,3.67
2018-06-23T20:19:40.562Z,4.10
2018-06-23T20:22:08.800Z,3.90
2018-06-23T20:24:36.906Z,3.97
2018-06-23T20:27:05.021Z,4.53
2018-06-23T20:29:33.076Z,5.20
2018-06-23T20:32:01.145Z,5.47
2018-06-23T20:34:29.217Z,5.07
2018-06-23T20:36:57.312Z,5.42
2018-06-23T20:39:25.401Z,5.70
2018-06-23T20:41:53.464Z,6.20
2018-06-23T20:44:21.531Z,6.50
2018-06-23T20:46:49.585Z,5.10
2018-06-23T20:49:17.651Z,6.97
2018-06-23T20:51:45.721Z,5.13
2018-06-23T20:54:14.303Z,4.93
2018-06-23T20:56:44.082Z,4.80
2018-06-23T20:59:12.969Z,3.90
2018-06-23T21:01:41.770Z,4.87
2018-06-23T21:04:10.661Z,4.90
2018-06-23T21:06:39.081Z,5.17
2018-06-23T21:09:07.788Z,6.17
2018-06-23T21:11:35.853Z,5.57
2018-06-23T21:14:04.073Z,4.50
2018-06-23T21:16:32.153Z,5.57
2018-06-23T21:19:00.195Z,4.77
2018-06-23T21:21:28.363Z,3.80
2018-06-23T21:23:56.426Z,5.57
2018-06-23T21:26:24.503Z,5.10
2018-06-23T21:28:52.522Z,4.57
2018-06-23T21:31:20.595Z,4.47
2018-06-23T21:33:48.666Z,5.60
2018-06-23T21:36:16.760Z,4.87
2018-06-23T21:38:45.220Z,4.20
2018-06-23T21:41:14.225Z,4.17
2018-06-23T21:43:42.954Z,5.30
2018-06-23T21:46:11.255Z,6.00
2018-06-23T21:48:39.584Z,4.87
2018-06-23T21:51:07.656Z,3.97
2018-06-23T21:53:35.717Z,3.87
2018-06-23T21:56:03.796Z,3.80
2018-06-23T21:58:31.888Z,3.60
2018-06-23T22:00:59.948Z,4.37
2018-06-23T22:03:28.031Z,3.83
2018-06-23T22:05:56.111Z,3.77
2018-06-23T22:08:24.204Z,4.10
2018-06-23T22:10:52.244Z,3.83
2018-06-23T22:13:20.316Z,4.27
2018-06-23T22:15:48.391Z,3.57
2018-06-23T22:18:16.645Z,4.70
2018-06-23T22:20:45.700Z,5.23
2018-06-23T22:23:14.690Z,6.10
2018-06-23T22:25:43.378Z,5.30
2018-06-23T22:28:11.655Z,5.53
2018-06-23T22:30:39.851Z,5.33
2018-06-23T22:33:07.907Z,6.50
2018-06-23T22:35:35.986Z,7.13
2018-06-23T22:38:04.157Z,6.70
2018-06-23T22:40:32.193Z,7.30
2018-06-23T22:43:00.260Z,6.23
2018-06-23T22:45:28.286Z,4.93
2018-06-23T22:47:56.365Z,4.70
2018-06-23T22:50:24.398Z,5.50
2018-06-23T22:52:52.539Z,4.97
2018-06-23T22:55:20.578Z,4.40
2018-06-23T22:57:48.639Z,3.43
2018-06-23T23:00:16.951Z,3.30
2018-06-23T23:02:45.919Z,3.00
2018-06-23T23:05:14.887Z,4.17
2018-06-23T23:07:43.474Z,3.70
2018-06-23T23:10:11.841Z,3.90
2018-06-23T23:12:40.242Z,4.63
2018-06-23T23:15:08.281Z,3.20
2018-06-23T23:17:36.341Z,3.67
2018-06-23T23:20:04.816Z,4.37
2018-06-23T23:22:32.873Z,3.90
2018-06-23T23:25:00.917Z,3.67
2018-06-23T23:27:28.996Z,3.63
2018-06-23T23:29:57.055Z,3.90
2018-06-23T23:32:25.079Z,3.90
2018-06-23T23:34:53.186Z,4.40
2018-06-23T23:37:21.216Z,3.80
2018-06-23T23:39:49.396Z,4.07
2018-06-23T23:42:17.724Z,4.17
2018-06-23T23:44:46.947Z,4.30
2018-06-23T23:47:15.800Z,3.60
2018-06-23T23:49:44.588Z,4.00
2018-06-23T23:52:12.792Z,4.10
2018-06-23T23:54:40.985Z,3.70
2018-06-23T23:57:09.025Z,4.43
2018-06-23T23:59:37.951Z,3.40
